Tiempo atmosférico en la estación meteorológica de Cala, Huelva (618 m.)



Fecha
DESCASC
Temp. máxima en grados centígrados (hora)
DESCASC
Temp. mínima en grados centígrados (hora)
DESCASC
Temp. media en grados centígrados
DESCASC
Racha de viento máxima en m/sg (hora)
DESCASC
Velocidad máxima media en intervalos de 10 minutos(hora)
DESCASC
Precipitaciones diarias en mm
DESCASC
Precipitaciones de 00:00 a 06:00 en mm
DESCASC
Precipitaciones de 06:00 a 12:00 en mm
DESCASC
Precipitaciones de 12:00 a 18:00 en mm
DESCASC
Precipitaciones de 18:00 a 24:00 en mm
DESCASC
18-02-2018 17.3 (14:30) 5.8 (06:20) 11.5 5 (16:10) 2.5 (11:20) 0 0 0 0 0
17-02-2018 18 (14:50) 3.9 (08:00) 11 6.11 (17:50) 3.06 (15:50) 0 0 0 0 0
16-02-2018 18.4 (14:40) 4.5 (07:40) 11.4 5.28 (15:20) 2.5 (15:20) 0 0 0 0 0
15-02-2018 17.6 (16:00) 3.2 (00:00) 10.4 6.39 (15:10) 2.5 (15:20) 0 0 0 0 0
14-02-2018 12.8 (14:20) 2.3 (00:00) 7.6 5.83 (14:20) 3.33 (14:30) 0 0 0 0 0
13-02-2018 10.9 (14:40) 1.1 (00:00) 6 6.94 (15:20) 3.61 (15:20) 0 0 0 0 0
12-02-2018 12.3 (15:00) 4.4 (00:00) 8.4 10.28 (12:50) 5.56 (12:20) 0.6 0 0.6 0 0
11-02-2018 16 (13:30) 0.8 (00:00) 8.4 8.89 (17:40) 5 (17:30) 0 0 0 0 0
10-02-2018 11.6 (12:10) 1 (00:00) 6.3 9.72 (15:30) 5.56 (15:10) 0 0 0 0 0
09-02-2018 10.2 (14:50) -1.9 (-00:0) 4.1 5 (11:40) 2.78 (18:30) 0 0 0 0 0
08-02-2018 8 (14:40) 0.1 (00:00) 4.1 9.44 (05:30) 4.17 (15:30) 0 0 0 0 0
07-02-2018 7.8 (14:50) -2.4 (-00:0) 2.7 10 (15:50) 4.44 (16:00) 0 0 0 0 0
06-02-2018 8.5 (14:50) -0.4 (00:00) 4 8.61 (21:10) 5 (12:00) 0 0 0 0 0
05-02-2018 8.2 (13:30) -0.5 (-00:0) 3.8 7.22 (23:00) 3.33 (18:20) 0 0 0 0 0
04-02-2018 7.9 (14:50) 0.3 (00:00) 4.1 9.72 (01:00) 5.28 (01:00) 0 0 0 0 0
03-02-2018 10.1 (16:30) -1.4 (-00:0) 4.4 8.89 (23:20) 5 (23:30) 0 0 0 0 0
02-02-2018 8.6 (15:00) 0.4 (00:00) 4.5 10.83 (02:20) 6.11 (01:10) 0 0 0 0 0
01-02-2018 12.1 (13:10) 3.8 (00:00) 8 12.78 (23:30) 6.39 (23:30) 0 0 0 0 0
31-01-2018 16.4 (15:00) 5.8 (00:00) 11.1 5.83 (19:00) 3.33 (19:00) 0 0 0 0 0
30-01-2018 14.9 (14:40) 3.9 (00:00) 9.4 7.78 (13:20) 3.89 (13:20) 0 0 0 0 0
29-01-2018 16.2 (14:40) 5.6 (00:00) 10.9 9.72 (15:00) 4.44 (15:00) 0 0 0 0 0
28-01-2018 11.3 (15:00) 4 (00:00) 7.7 13.61 (12:40) 5.56 (11:00) 0 0 0 0 0
27-01-2018 9.8 (14:50) 1.8 (00:00) 5.8 10.28 (12:50) 5.28 (00:10) 0 0 0 0 0
26-01-2018 9.3 (15:50) 1.3 (00:00) 5.3 11.94 (14:30) 7.5 (14:40) 0.2 0.2 0 0 0
25-01-2018 12.3 (13:00) 4.3 (00:00) 8.3 10 (23:00) 5.56 (23:00) 2.4 0 0 2.4 0
24-01-2018 16.9 (15:00) 4.6 (00:00) 10.7 5.56 (13:40) 2.78 (13:40) 0 0 0 0 0
23-01-2018 19.5 (15:00) 4.6 (00:00) 12 6.11 (01:30) 2.78 (02:20) 0 0 0 0 0
22-01-2018 18.5 (15:00) 4.4 (00:00) 11.5 4.72 (23:40) 2.5 (23:40) 0 0 0 0 0

Gráficas

Temp. máximas Temp. mínimas Temp. medias Precipitaciones Rachas de viento máximas Velocidades máximas media en intervalos de 10 minutos

Datos horarios

Fecha y hora oficial Temperatura (ºC) Velocidad del viento (km/h) Dirección del viento Racha (km/h) Dirección de racha Precipitación (mm) Presión (hPa) Tendencia (hPa) Humedad (%)
2018-02-20 23:00:00 7.7 0 Calma 6 Noroeste 0 -- -- 72
2018-02-20 22:00:00 8.4 3 Noroeste 10 Noroeste 0 -- -- 67
2018-02-20 21:00:00 9.6 4 Noroeste 9 Noroeste 0 -- -- 61
2018-02-20 20:00:00 11.5 5 Norte 10 Noroeste 0 -- -- 55
2018-02-20 19:00:00 14 4 Noroeste 15 Norte 0 -- -- 50
2018-02-20 18:00:00 15.9 8 Norte 17 Noroeste 0 -- -- 42
2018-02-20 17:00:00 16.4 10 Norte 19 Norte 0 -- -- 41
2018-02-20 16:00:00 16.6 7 Norte 19 Norte 0 -- -- 43
2018-02-20 15:00:00 16.9 9 Nordeste 21 Nordeste 0 -- -- 42
2018-02-20 14:00:00 16.7 9 Nordeste 21 Nordeste 0 -- -- 41
2018-02-20 13:00:00 16.2 7 Nordeste 22 Este 0 -- -- 45
2018-02-20 12:00:00 15.9 9 Este 24 Sudeste 0 -- -- 47
2018-02-20 11:00:00 14 10 Este 25 Este 0 -- -- 53
2018-02-20 10:00:00 10.4 3 Sudeste 8 Sudeste 0 -- -- 66
2018-02-20 09:00:00 6.6 2 Norte 8 Norte 0 -- -- 77
2018-02-20 08:00:00 4.8 0 Calma 7 Nordeste 0 -- -- 83
2018-02-20 07:00:00 4.9 2 Noroeste 7 Norte 0 -- -- 81
2018-02-20 06:00:00 5.3 0 Calma 7 Este 0 -- -- 78
2018-02-20 05:00:00 5.3 0 Calma 5 Este 0 -- -- 78
2018-02-20 04:00:00 5.2 0 Calma 6 Oeste 0 -- -- 77
2018-02-20 03:00:00 5.9 2 Oeste 7 Oeste 0 -- -- 72
2018-02-20 02:00:00 7.3 5 Noroeste 13 Norte 0 -- -- 66
2018-02-20 01:00:00 7.9 4 Noroeste 14 Noroeste 0 -- -- 65
2018-02-20 00:00:00 6.7 4 Norte 10 Norte 0 -- -- 70
2018-02-19 23:00:00 7.3 2 Oeste 11 Norte 0 -- -- 67
2018-02-19 22:00:00 7.2 5 Noroeste 9 Noroeste 0 -- -- 69
2018-02-19 21:00:00 8.3 6 Noroeste 9 Noroeste 0 -- -- 64
2018-02-19 20:00:00 9.8 6 Noroeste 9 Noroeste 0 -- -- 58
2018-02-19 19:00:00 12 4 Noroeste 14 Norte 0 -- -- 53
2018-02-19 18:00:00 13.5 4 Norte 19 Norte 0 -- -- 48
2018-02-19 17:00:00 14.2 8 Nordeste 21 Este 0 -- -- 44
2018-02-19 16:00:00 14.9 13 Nordeste 25 Nordeste 0 -- -- 42
2018-02-19 15:00:00 15.3 8 Nordeste 28 Nordeste 0 -- -- 43
2018-02-19 14:00:00 15 10 Nordeste 23 Este 0 -- -- 44
2018-02-19 13:00:00 14 11 Este 27 Nordeste 0 -- -- 46
2018-02-19 12:00:00 13.7 13 Nordeste 30 Nordeste 0 -- -- 45
2018-02-19 11:00:00 12.2 10 Nordeste 21 Nordeste 0 -- -- 50
2018-02-19 10:00:00 9.5 9 Nordeste 15 Nordeste 0 -- -- 56
2018-02-19 09:00:00 6.6 4 Nordeste 9 Nordeste 0 -- -- 65
2018-02-19 08:00:00 5.2 0 Calma 5 Este 0 -- -- 65
2018-02-19 07:00:00 6.1 0 Calma 10 Este 0 -- -- 59
2018-02-19 06:00:00 6.8 3 Sudeste 12 Nordeste 0 -- -- 55
2018-02-19 05:00:00 6.2 2 Nordeste 12 Este 0 -- -- 48
2018-02-19 04:00:00 5.8 0 Calma 9 Nordeste 0 -- -- 50
2018-02-19 03:00:00 4.3 3 Noroeste 5 Noroeste 0 -- -- 62
2018-02-19 02:00:00 5.8 0 Calma 8 Nordeste 0 -- -- 56
2018-02-19 01:00:00 6.5 2 Norte 9 Nordeste 0 -- -- 50
2018-02-19 00:00:00 7.3 0 Calma 11 Norte 0 -- -- 56
2018-02-18 23:00:00 8.5 5 Norte 12 Norte 0 -- -- 56
2018-02-18 22:00:00 9.1 5 Norte 13 Nordeste 0 -- -- 57
2018-02-18 21:00:00 9.7 2 Norte 10 Nordeste 0 -- -- 60
2018-02-18 20:00:00 11.2 2 Noroeste 8 Norte 0 -- -- 58
2018-02-18 19:00:00 13.5 4 Nordeste 11 Este 0 -- -- 52
2018-02-18 18:00:00 14.7 7 Este 13 Este 0 -- -- 52
2018-02-18 17:00:00 15.4 4 Este 18 Este 0 -- -- 52
2018-02-18 16:00:00 16 6 Este 15 Sudeste 0 -- -- 51
2018-02-18 15:00:00 17 6 Este 16 Nordeste 0 -- -- 51
2018-02-18 14:00:00 16.8 5 Sudeste 14 Este 0 -- -- 52
2018-02-18 13:00:00 17.1 5 Este 16 Sudeste 0 -- -- 52
2018-02-18 12:00:00 15.2 7 Este 17 Este 0 -- -- 57
2018-02-18 11:00:00 13 5 Este 15 Sudeste 0 -- -- 64
2018-02-18 10:00:00 10.5 3 Este 6 Este 0 -- -- 74
2018-02-18 09:00:00 7.7 0 Calma 6 Este 0 -- -- 87
2018-02-18 08:00:00 6.1 2 Sudeste 5 Sudeste 0 -- -- 90
2018-02-18 07:00:00 5.9 0 Calma 2 Norte 0 -- -- 90
2018-02-18 06:00:00 5.9 0 Calma 4 Este 0 -- -- 89
2018-02-18 05:00:00 6.5 0 Calma 9 Noroeste 0 -- -- 87
2018-02-18 04:00:00 7.1 6 Norte 10 Norte 0 -- -- 87
2018-02-18 03:00:00 7.5 4 Noroeste 10 Noroeste 0 -- -- 83
2018-02-18 02:00:00 8.2 2 Norte 11 Nordeste 0 -- -- 83
2018-02-18 01:00:00 8.4 8 Norte 17 Norte 0 -- -- 84
2018-02-18 00:00:00 7.5 4 Noroeste 13 Norte 0 -- -- 81
2018-02-17 23:00:00 7.8 3 Noroeste 7 Norte 0 -- -- 71
2018-02-17 22:00:00 8.9 0 Calma 5 Norte 0 -- -- 71
2018-02-17 21:00:00 10.5 4 Norte 10 Norte 0 -- -- 67
2018-02-17 20:00:00 11.9 8 Norte 15 Norte 0 -- -- 64
2018-02-17 19:00:00 13.5 3 Norte 14 Noroeste 0 -- -- 61
2018-02-17 18:00:00 14.9 8 Norte 22 Noroeste 0 -- -- 50
2018-02-17 17:00:00 16.5 6 Norte 15 Noroeste 0 -- -- 52
2018-02-17 16:00:00 17.3 6 Noroeste 21 Oeste 0 -- -- 52
2018-02-17 15:00:00 17.8 7 Noroeste 15 Sudoeste 0 -- -- 48
2018-02-17 14:00:00 17 6 Noroeste 15 Oeste 0 -- -- 52
2018-02-17 13:00:00 16.8 4 Oeste 14 Oeste 0 -- -- 51
2018-02-17 12:00:00 16.9 5 Sudoeste 15 Oeste 0 -- -- 53
2018-02-17 11:00:00 13.6 4 Sudeste 8 Este 0 -- -- 69
2018-02-17 10:00:00 9 0 Calma 5 Noroeste 0 -- -- 94
2018-02-17 09:00:00 4.6 0 Calma -- -- 0 -- -- 97
2018-02-17 08:00:00 3.9 0 Calma 4 Noroeste 0 -- -- 94
2018-02-17 07:00:00 4.4 0 Calma 6 Noroeste 0 -- -- 92
2018-02-17 06:00:00 4.6 0 Calma 8 Oeste 0 -- -- 94
2018-02-17 05:00:00 4.5 0 Calma 3 Noroeste 0 -- -- 92
2018-02-17 04:00:00 4.8 2 Noroeste 6 Noroeste 0 -- -- 91
2018-02-17 03:00:00 5.2 0 Calma 5 Noroeste 0 -- -- 89
2018-02-17 02:00:00 5.8 0 Calma 5 Oeste 0 -- -- 86
2018-02-17 01:00:00 6.9 4 Noroeste 8 Oeste 0 -- -- 84
2018-02-17 00:00:00 7.8 3 Oeste 8 Oeste 0 -- -- 84
2018-02-16 23:00:00 8.6 4 Noroeste 9 Oeste 0 -- -- 78
2018-02-16 22:00:00 9.7 5 Noroeste 13 Noroeste 0 -- -- 76
2018-02-16 21:00:00 10.1 4 Oeste 9 Noroeste 0 -- -- 74
2018-02-16 20:00:00 12.4 4 Oeste 13 Sudoeste 0 -- -- 64
2018-02-16 19:00:00 15.3 8 Oeste 16 Sudoeste 0 -- -- 49
2018-02-16 18:00:00 17.5 8 Sudoeste 16 Oeste 0 -- -- 48
2018-02-16 17:00:00 18.2 6 Oeste 15 Oeste 0 -- -- 48
2018-02-16 16:00:00 18.3 5 Sur 19 Sudoeste 0 -- -- 47
2018-02-16 15:00:00 18.4 5 Oeste 15 Oeste 0 -- -- 42
2018-02-16 14:00:00 17.8 4 Oeste 17 Oeste 0 -- -- 44
2018-02-16 13:00:00 17.2 5 Sudoeste 13 Sudoeste 0 -- -- 49
2018-02-16 12:00:00 16.5 5 Noroeste 14 Oeste 0 -- -- 60
2018-02-16 11:00:00 13.8 5 Noroeste 9 Noroeste 0 -- -- 75
2018-02-16 10:00:00 9 0 Calma -- -- 0 -- -- 99
2018-02-16 09:00:00 5.6 0 Calma -- -- 0 -- -- 98
2018-02-16 08:00:00 4.6 0 Calma -- -- 0 -- -- 96
2018-02-16 07:00:00 4.7 0 Calma -- -- 0 -- -- 96
2018-02-16 06:00:00 5.2 0 Calma 4 Noroeste 0 -- -- 96
2018-02-16 05:00:00 5.2 3 Noroeste 6 Noroeste 0 -- -- 96
2018-02-16 04:00:00 5.4 2 Noroeste 4 Noroeste 0 -- -- 96
2018-02-16 03:00:00 5.4 3 Oeste 4 Noroeste 0 -- -- 94
2018-02-16 02:00:00 5.8 0 Calma 0 Calma 0 -- -- 93
2018-02-16 01:00:00 6.3 0 Calma 2 Sudoeste 0 -- -- 92
2018-02-16 00:00:00 7 0 Calma 3 Sudeste 0 -- -- 89
2018-02-15 23:00:00 7.6 0 Calma 3 Sudoeste 0 -- -- 89
2018-02-15 22:00:00 8.6 0 Calma 0 Calma 0 -- -- 84
2018-02-15 21:00:00 10 0 Calma 4 Norte 0 -- -- 79
2018-02-15 20:00:00 11.8 0 Calma 8 Nordeste 0 -- -- 73
2018-02-15 19:00:00 14.2 4 Norte 10 Nordeste 0 -- -- 65
2018-02-15 18:00:00 15.3 4 Norte 12 Nordeste 0 -- -- 62
2018-02-15 17:00:00 16.3 6 Nordeste 17 Nordeste 0 -- -- 59
2018-02-15 16:00:00 17.6 5 Noroeste 23 Oeste 0 -- -- 55
2018-02-15 15:00:00 17.1 6 Oeste 12 Oeste 0 -- -- 56
2018-02-15 14:00:00 16.2 2 Norte 8 Este 0 -- -- 56
2018-02-15 13:00:00 15.1 3 Nordeste 10 Nordeste 0 -- -- 59
2018-02-15 12:00:00 14.6 3 Sudeste 12 Este 0 -- -- 63
2018-02-15 11:00:00 11.6 5 Este 12 Nordeste 0 -- -- 76
2018-02-15 10:00:00 8 3 Este 6 Este 0 -- -- 98
2018-02-15 09:00:00 4.2 3 Noroeste 5 Oeste 0 -- -- 98
2018-02-15 08:00:00 3.4 2 Oeste 6 Noroeste 0 -- -- 97
2018-02-15 07:00:00 3.4 0 Calma 2 Oeste 0 -- -- 96
2018-02-15 06:00:00 3.6 0 Calma 5 Noroeste 0 -- -- 96
2018-02-15 05:00:00 3.8 3 Noroeste 5 Noroeste 0 -- -- 95
2018-02-15 04:00:00 4.1 4 Noroeste 6 Noroeste 0 -- -- 95
2018-02-15 03:00:00 4.4 3 Noroeste 6 Oeste 0 -- -- 94
2018-02-15 02:00:00 4.8 4 Noroeste 6 Noroeste 0 -- -- 94
2018-02-15 01:00:00 5.2 3 Noroeste 7 Noroeste 0 -- -- 93
2018-02-15 00:00:00 5.6 4 Oeste 9 Noroeste 0 -- -- 91
2018-02-14 23:00:00 6.2 5 Oeste 11 Oeste 0 -- -- 92
2018-02-14 22:00:00 5.6 2 Oeste 9 Oeste 0 -- -- 90
2018-02-14 21:00:00 6 2 Oeste 5 Noroeste 0 -- -- 83
2018-02-14 20:00:00 8 2 Oeste 9 Sudoeste 0 -- -- 76
2018-02-14 19:00:00 10.1 4 Oeste 14 Noroeste 0 -- -- 70
2018-02-14 18:00:00 11.8 9 Noroeste 15 Noroeste 0 -- -- 64
2018-02-14 17:00:00 12.1 9 Noroeste 19 Noroeste 0 -- -- 62
2018-02-14 16:00:00 12.1 8 Noroeste 19 Noroeste 0 -- -- 62
2018-02-14 15:00:00 12.6 11 Noroeste 21 Noroeste 0 -- -- 60
2018-02-14 14:00:00 11.9 7 Oeste 16 Noroeste 0 -- -- 62
2018-02-14 13:00:00 10.4 5 Oeste 14 Sudoeste 0 -- -- 70
2018-02-14 12:00:00 8.4 6 Oeste 12 Oeste 0 -- -- 81
2018-02-14 11:00:00 6.7 4 Noroeste 8 Oeste 0 -- -- 88
2018-02-14 10:00:00 5 0 Calma 3 Norte 0 -- -- 97
2018-02-14 09:00:00 2.6 0 Calma 5 Oeste 0 -- -- 96
2018-02-14 08:00:00 2.7 3 Oeste 8 Oeste 0 -- -- 93
2018-02-14 07:00:00 3.7 3 Oeste 11 Oeste 0 -- -- 89
2018-02-14 06:00:00 3.8 5 Oeste 12 Oeste 0 -- -- 93
2018-02-14 05:00:00 3.5 6 Oeste 13 Noroeste 0 -- -- 91
2018-02-14 04:00:00 3.4 5 Oeste 14 Oeste 0 -- -- 91
2018-02-14 03:00:00 3.2 3 Oeste 10 Oeste 0 -- -- 90
2018-02-14 02:00:00 2.6 4 Oeste 7 Oeste 0 -- -- 90
2018-02-14 01:00:00 2.7 3 Oeste 8 Oeste 0 -- -- 88
2018-02-14 00:00:00 2.8 4 Oeste 8 Oeste 0 -- -- 90
2018-02-13 23:00:00 2.8 2 Noroeste 5 Noroeste 0 -- -- 87
2018-02-13 22:00:00 3.7 0 Calma 7 Noroeste 0 -- -- 83
2018-02-13 21:00:00 4.1 4 Noroeste 6 Noroeste 0 -- -- 78
2018-02-13 20:00:00 6.1 3 Noroeste 13 Noroeste 0 -- -- 72
2018-02-13 19:00:00 7.9 6 Noroeste 18 Noroeste 0 -- -- 64
2018-02-13 18:00:00 9.6 10 Noroeste 20 Oeste 0 -- -- 56
2018-02-13 17:00:00 10.3 8 Oeste 23 Noroeste 0 -- -- 49
2018-02-13 16:00:00 10.6 9 Oeste 25 Noroeste 0 -- -- 46
2018-02-13 15:00:00 10.8 10 Oeste 21 Noroeste 0 -- -- 39
2018-02-13 14:00:00 10.3 9 Oeste 21 Oeste 0 -- -- 41
2018-02-13 13:00:00 9.8 7 Oeste 17 Noroeste 0 -- -- 43
2018-02-13 12:00:00 9.4 5 Oeste 15 Oeste 0 -- -- 44
2018-02-13 11:00:00 7.3 7 Oeste 12 Oeste 0 -- -- 54
2018-02-13 10:00:00 3.9 4 Oeste 12 Oeste 0 -- -- 69
2018-02-13 09:00:00 1.4 6 Oeste 13 Oeste 0 -- -- 86
2018-02-13 08:00:00 1.5 6 Oeste 17 Noroeste 0 -- -- 84
2018-02-13 07:00:00 1.3 6 Noroeste 12 Noroeste 0 -- -- 85
2018-02-13 06:00:00 1.8 7 Noroeste 13 Oeste 0 -- -- 83
2018-02-13 05:00:00 2.2 5 Noroeste 13 Noroeste 0 -- -- 81
2018-02-13 04:00:00 2.6 7 Noroeste 17 Noroeste 0 -- -- 78
2018-02-13 03:00:00 2.6 6 Oeste 12 Oeste 0 -- -- 78
2018-02-13 02:00:00 3.6 7 Noroeste 16 Oeste 0 -- -- 73
2018-02-13 01:00:00 4.3 10 Noroeste 19 Noroeste 0 -- -- 69
2018-02-13 00:00:00 4.8 12 Noroeste 20 Noroeste 0 -- -- 65
2018-02-12 23:00:00 4.6 9 Noroeste 19 Oeste 0 -- -- 63
2018-02-12 22:00:00 5.2 9 Noroeste 18 Noroeste 0 -- -- 59
2018-02-12 21:00:00 5.4 4 Noroeste 11 Noroeste 0 -- -- 56
2018-02-12 20:00:00 6.7 7 Noroeste 18 Noroeste 0 -- -- 55
2018-02-12 19:00:00 8.7 10 Noroeste 21 Noroeste 0 -- -- 47
2018-02-12 18:00:00 10.3 15 Noroeste 30 Noroeste 0 -- -- 46
2018-02-12 17:00:00 11.2 15 Noroeste 31 Noroeste 0 -- -- 47
2018-02-12 16:00:00 11.6 17 Noroeste 33 Oeste 0 -- -- 44
2018-02-12 15:00:00 12.3 11 Noroeste 29 Noroeste 0 -- -- 54
2018-02-12 14:00:00 11.6 16 Noroeste 33 Oeste 0 -- -- 56
2018-02-12 13:00:00 10.7 18 Noroeste 37 Noroeste 0 -- -- 61
2018-02-12 12:00:00 10.1 14 Noroeste 27 Oeste 0 -- -- 73
2018-02-12 11:00:00 9.1 13 Noroeste 25 Noroeste 0.2 -- -- 90
2018-02-12 10:00:00 8.9 8 Oeste 20 Oeste 0.4 -- -- 95
2018-02-12 09:00:00 8.3 8 Noroeste 20 Noroeste 0 -- -- 94
2018-02-12 08:00:00 8.2 9 Noroeste 23 Noroeste 0 -- -- 93
2018-02-12 07:00:00 8 13 Noroeste 27 Noroeste 0 -- -- 93
2018-02-12 06:00:00 8 12 Noroeste 36 Oeste 0 -- -- 92
2018-02-12 05:00:00 8.4 15 Noroeste 34 Noroeste 0 -- -- 89
2018-02-12 04:00:00 8.7 16 Noroeste 35 Noroeste 0 -- -- 87
2018-02-12 03:00:00 9.1 19 Noroeste 33 Noroeste 0 -- -- 86
2018-02-12 02:00:00 9.4 11 Noroeste 25 Noroeste 0 -- -- 92
2018-02-12 01:00:00 9.1 8 Noroeste 24 Noroeste 0 -- -- 93
2018-02-12 00:00:00 9.5 15 Noroeste 27 Noroeste 0 -- -- 92
2018-02-11 23:00:00 10 14 Noroeste 29 Oeste 0 -- -- 91
2018-02-11 22:00:00 10.1 10 Noroeste 23 Noroeste 0 -- -- 89
2018-02-11 21:00:00 10.2 10 Noroeste 20 Noroeste 0 -- -- 88
2018-02-11 20:00:00 10.5 12 Noroeste 23 Noroeste 0 -- -- 85
2018-02-11 19:00:00 10.9 12 Noroeste 23 Noroeste 0 -- -- 83
2018-02-11 18:00:00 11.7 10 Noroeste 32 Noroeste 0 -- -- 79
2018-02-11 17:00:00 14.1 10 Noroeste 25 Oeste 0 -- -- 67
2018-02-11 16:00:00 15.5 12 Noroeste 22 Noroeste 0 -- -- 60
2018-02-11 15:00:00 15.8 10 Oeste 19 Oeste 0 -- -- 58
2018-02-11 14:00:00 15.6 11 Noroeste 19 Noroeste 0 -- -- 58
2018-02-11 13:00:00 15.8 3 Sudoeste 13 Oeste 0 -- -- 56
2018-02-11 12:00:00 15.1 6 Norte 13 Oeste 0 -- -- 59
2018-02-11 11:00:00 10.8 2 Este 8 Norte 0 -- -- 70
2018-02-11 10:00:00 7.7 4 Norte 12 Nordeste 0 -- -- 80
2018-02-11 09:00:00 1.9 2 Sur 6 Sudoeste 0 -- -- 92
2018-02-11 08:00:00 0.9 0 Calma 5 Sur 0 -- -- 88
2018-02-11 07:00:00 1 0 Calma 6 Noroeste 0 -- -- 86
2018-02-11 06:00:00 1.5 0 Calma 4 Oeste 0 -- -- 83
2018-02-11 05:00:00 1.6 2 Noroeste 4 Noroeste 0 -- -- 80
2018-02-11 04:00:00 2.1 0 Calma 5 Sudoeste 0 -- -- 77
2018-02-11 03:00:00 2.8 0 Calma 6 Sudeste 0 -- -- 73
2018-02-11 02:00:00 4 3 Sudeste 8 Oeste 0 -- -- 67
2018-02-11 01:00:00 5.8 3 Oeste 18 Nordeste 0 -- -- 60
2018-02-11 00:00:00 5.9 12 Norte 21 Norte 0 -- -- 60
2018-02-10 23:00:00 4.8 5 Norte 11 Norte 0 -- -- 63
2018-02-10 22:00:00 6.3 6 Norte 23 Norte 0 -- -- 57
2018-02-10 21:00:00 7.1 15 Norte 34 Noroeste 0 -- -- 55
2018-02-10 20:00:00 7.5 17 Norte 28 Norte 0 -- -- 55
2018-02-10 19:00:00 8.2 12 Noroeste 23 Noroeste 0 -- -- 56
2018-02-10 18:00:00 9.8 9 Norte 26 Noroeste 0 -- -- 51
2018-02-10 17:00:00 10.4 14 Norte 30 Norte 0 -- -- 45
2018-02-10 16:00:00 10.6 15 Norte 35 Norte 0 -- -- 44
2018-02-10 15:00:00 11 19 Norte 34 Noroeste 0 -- -- 41
2018-02-10 14:00:00 11.1 15 Norte 31 Noroeste 0 -- -- 47
2018-02-10 13:00:00 11.2 11 Norte 25 Norte 0 -- -- 48
2018-02-10 12:00:00 11.4 11 Norte 24 Nordeste 0 -- -- 50
2018-02-10 11:00:00 9.7 12 Nordeste 22 Nordeste 0 -- -- 57
2018-02-10 10:00:00 5.5 3 Sudeste 14 Norte 0 -- -- 87
2018-02-10 09:00:00 1.2 7 Noroeste 10 Norte 0 -- -- 95
2018-02-10 08:00:00 1.6 2 Oeste 6 Noroeste 0 -- -- 92
2018-02-10 07:00:00 2.7 2 Sudoeste 13 Noroeste 0 -- -- 91
2018-02-10 06:00:00 3.3 2 Sudoeste 13 Noroeste 0 -- -- 94
2018-02-10 05:00:00 3.3 3 Oeste 12 Oeste 0 -- -- 96
2018-02-10 04:00:00 2.4 0 Calma 5 Noroeste 0 -- -- 95
2018-02-10 03:00:00 1.9 3 Noroeste 6 Noroeste 0 -- -- 93
2018-02-10 02:00:00 2.6 0 Calma 4 Noroeste 0 -- -- 88
2018-02-10 01:00:00 4.6 3 Noroeste 13 Norte 0 -- -- 82
2018-02-10 00:00:00 5.8 4 Norte 11 Este 0 -- -- 82
2018-02-09 23:00:00 6 5 Este 10 Sudeste 0 -- -- 81
2018-02-09 22:00:00 6.1 3 Este 13 Nordeste 0 -- -- 81
2018-02-09 21:00:00 6.5 5 Nordeste 17 Norte 0 -- -- 81
2018-02-09 20:00:00 6.9 9 Norte 14 Norte 0 -- -- 82
2018-02-09 19:00:00 7.5 5 Norte 16 Noroeste 0 -- -- 80
2018-02-09 18:00:00 8.3 8 Noroeste 17 Oeste 0 -- -- 78
2018-02-09 17:00:00 9 9 Oeste 17 Oeste 0 -- -- 74
2018-02-09 16:00:00 9.5 9 Noroeste 17 Oeste 0 -- -- 71
2018-02-09 15:00:00 10.2 9 Noroeste 15 Noroeste 0 -- -- 67
2018-02-09 14:00:00 9.6 7 Oeste 15 Sudoeste 0 -- -- 58
2018-02-09 13:00:00 8 0 Calma 14 Oeste 0 -- -- 60
2018-02-09 12:00:00 6.8 7 Noroeste 18 Oeste 0 -- -- 56
2018-02-09 11:00:00 5.8 5 Oeste 10 Oeste 0 -- -- 55
2018-02-09 10:00:00 3.7 3 Sudeste 9 Noroeste 0 -- -- 61
2018-02-09 09:00:00 0.9 4 Oeste 11 Oeste 0 -- -- 64
2018-02-09 08:00:00 -1.4 3 Oeste 8 Oeste 0 -- -- 75
2018-02-09 07:00:00 -1.8 0 Calma 5 Oeste 0 -- -- 74
2018-02-09 06:00:00 -1.8 0 Calma 5 Noroeste 0 -- -- 71
2018-02-09 05:00:00 -1.2 0 Calma 6 Sudoeste 0 -- -- 67
2018-02-09 04:00:00 -1.3 4 Oeste 9 Oeste 0 -- -- 68
2018-02-09 03:00:00 -1.7 4 Noroeste 8 Noroeste 0 -- -- 73
2018-02-09 02:00:00 -1.6 4 Noroeste 7 Noroeste 0 -- -- 72
2018-02-09 01:00:00 -0.6 0 Calma 10 Norte 0 -- -- 66
2018-02-09 00:00:00 0.5 5 Noroeste 11 Norte 0 -- -- 59
2018-02-08 23:00:00 0.8 6 Noroeste 13 Norte 0 -- -- 57
2018-02-08 22:00:00 0.8 0 Calma 7 Nordeste 0 -- -- 60
2018-02-08 21:00:00 2.3 3 Norte 12 Norte 0 -- -- 52
2018-02-08 20:00:00 3.6 3 Nordeste 13 Norte 0 -- -- 47
2018-02-08 19:00:00 4.9 5 Norte 25 Nordeste 0 -- -- 45
2018-02-08 18:00:00 6.3 12 Nordeste 28 Nordeste 0 -- -- 39
2018-02-08 17:00:00 7.2 12 Norte 28 Nordeste 0 -- -- 36
2018-02-08 16:00:00 7.6 13 Norte 31 Norte 0 -- -- 40
2018-02-08 15:00:00 7.8 12 Nordeste 28 Nordeste 0 -- -- 40
2018-02-08 14:00:00 7.2 13 Nordeste 30 Nordeste 0 -- -- 39
2018-02-08 13:00:00 6.6 11 Nordeste 25 Nordeste 0 -- -- 43
2018-02-08 12:00:00 6 13 Nordeste 26 Nordeste 0 -- -- 45
2018-02-08 11:00:00 4.5 11 Nordeste 28 Nordeste 0 -- -- 49
2018-02-08 10:00:00 2.1 8 Nordeste 22 Nordeste 0 -- -- 57
2018-02-08 09:00:00 0.3 9 Nordeste 21 Nordeste 0 -- -- 61
2018-02-08 08:00:00 0.3 8 Nordeste 19 Este 0 -- -- 60
2018-02-08 07:00:00 0.8 7 Este 31 Nordeste 0 -- -- 56
2018-02-08 06:00:00 1.6 11 Nordeste 34 Nordeste 0 -- -- 53
2018-02-08 05:00:00 1.5 11 Nordeste 26 Nordeste 0 -- -- 54
2018-02-08 04:00:00 1.2 6 Nordeste 21 Este 0 -- -- 58
2018-02-08 03:00:00 1.1 4 Este 17 Este 0 -- -- 63
2018-02-08 02:00:00 1 4 Este 14 Nordeste 0 -- -- 63
2018-02-08 01:00:00 1.4 2 Este 16 Nordeste 0 -- -- 61
2018-02-08 00:00:00 1.5 5 Nordeste 12 Nordeste 0 -- -- 59
2018-02-07 23:00:00 1.4 2 Nordeste 9 Nordeste 0 -- -- 60
2018-02-07 22:00:00 2.3 3 Nordeste 11 Nordeste 0 -- -- 57
2018-02-07 21:00:00 3.5 3 Nordeste 10 Este 0 -- -- 52
2018-02-07 20:00:00 4.6 8 Nordeste 17 Nordeste 0 -- -- 47
2018-02-07 19:00:00 4.9 5 Nordeste 23 Nordeste 0 -- -- 46
2018-02-07 18:00:00 6.3 10 Este 26 Nordeste 0 -- -- 41
2018-02-07 17:00:00 7.1 12 Nordeste 36 Este 0 -- -- 38
2018-02-07 16:00:00 7.1 16 Nordeste 36 Este 0 -- -- 38
2018-02-07 15:00:00 7.8 13 Nordeste 33 Este 0 -- -- 36
2018-02-07 14:00:00 7.1 15 Nordeste 33 Nordeste 0 -- -- 39
2018-02-07 13:00:00 6.3 14 Este 31 Este 0 -- -- 46
2018-02-07 12:00:00 5.7 11 Este 25 Nordeste 0 -- -- 49
2018-02-07 11:00:00 4.8 8 Este 22 Este 0 -- -- 55
2018-02-07 10:00:00 2.4 6 Nordeste 18 Este 0 -- -- 60
2018-02-07 09:00:00 0.6 4 Este 15 Este 0 -- -- 69
2018-02-07 08:00:00 -0.8 2 Nordeste 8 Sur 0 -- -- 78
2018-02-07 07:00:00 -2.2 2 Nordeste 6 Norte 0 -- -- 82
2018-02-07 06:00:00 -1.2 0 Calma 7 Este 0 -- -- 74
2018-02-07 05:00:00 -0.7 0 Calma 7 Nordeste 0 -- -- 70
2018-02-07 04:00:00 -0.7 2 Este 6 Este 0 -- -- 68
2018-02-07 03:00:00 -0.7 2 Norte 13 Norte 0 -- -- 69
2018-02-07 02:00:00 0 3 Norte 13 Norte 0 -- -- 65
2018-02-07 01:00:00 0.6 6 Noroeste 16 Noroeste 0 -- -- 61
2018-02-07 00:00:00 1.5 9 Noroeste 21 Noroeste 0 -- -- 58
2018-02-06 23:00:00 2.1 10 Noroeste 26 Noroeste 0 -- -- 56
2018-02-06 22:00:00 2.4 7 Noroeste 31 Norte 0 -- -- 54
2018-02-06 21:00:00 2.9 9 Noroeste 23 Norte 0 -- -- 54
2018-02-06 20:00:00 3.5 9 Noroeste 19 Noroeste 0 -- -- 51
2018-02-06 19:00:00 5.2 6 Noroeste 22 Noroeste 0 -- -- 51
2018-02-06 18:00:00 7 13 Noroeste 27 Noroeste 0 -- -- 46
2018-02-06 17:00:00 7.6 10 Noroeste 25 Noroeste 0 -- -- 46
2018-02-06 16:00:00 8 7 Norte 21 Nordeste 0 -- -- 47
2018-02-06 15:00:00 8.3 12 Norte 25 Norte 0 -- -- 49
2018-02-06 14:00:00 7.7 9 Norte 28 Norte 0 -- -- 52
2018-02-06 13:00:00 7 11 Norte 24 Norte 0 -- -- 57
2018-02-06 12:00:00 5.8 18 Norte 31 Noroeste 0 -- -- 60
2018-02-06 11:00:00 3.5 11 Norte 27 Norte 0 -- -- 71
2018-02-06 10:00:00 2.2 13 Norte 28 Norte 0 -- -- 77
2018-02-06 09:00:00 0.5 9 Norte 22 Norte 0 -- -- 85
2018-02-06 08:00:00 0.3 8 Norte 22 Norte 0 -- -- 85
2018-02-06 07:00:00 0 6 Norte 21 Nordeste 0 -- -- 86
2018-02-06 06:00:00 0.2 6 Oeste 18 Oeste 0 -- -- 82
2018-02-06 05:00:00 0.8 9 Noroeste 24 Noroeste 0 -- -- 79
2018-02-06 04:00:00 0.8 15 Noroeste 23 Noroeste 0 -- -- 80
2018-02-06 03:00:00 0.6 4 Noroeste 11 Noroeste 0 -- -- 80
2018-02-06 02:00:00 1.1 5 Noroeste 16 Noroeste 0 -- -- 77
2018-02-06 01:00:00 1.9 5 Noroeste 22 Noroeste 0 -- -- 73
2018-02-06 00:00:00 2 5 Noroeste 23 Noroeste 0 -- -- 74
2018-02-05 23:00:00 2.1 9 Noroeste 26 Noroeste 0 -- -- 75
2018-02-05 22:00:00 2.2 3 Oeste 10 Noroeste 0 -- -- 79
2018-02-05 21:00:00 3.1 4 Oeste 14 Oeste 0 -- -- 76
2018-02-05 20:00:00 3.7 5 Noroeste 11 Oeste 0 -- -- 71
2018-02-05 19:00:00 4.9 8 Noroeste 22 Oeste 0 -- -- 66
2018-02-05 18:00:00 6.2 3 Norte 22 Norte 0 -- -- 63
2018-02-05 17:00:00 6.8 7 Norte 13 Norte 0 -- -- 60
2018-02-05 16:00:00 7 6 Norte 16 Norte 0 -- -- 59
2018-02-05 15:00:00 8.2 3 Este 13 Este 0 -- -- 51
2018-02-05 14:00:00 7.6 4 Nordeste 11 Norte 0 -- -- 54
2018-02-05 13:00:00 7.1 2 Este 8 Nordeste 0 -- -- 60
2018-02-05 12:00:00 5.4 3 Norte 9 Oeste 0 -- -- 65
2018-02-05 11:00:00 3.3 4 Noroeste 8 Oeste 0 -- -- 76
2018-02-05 10:00:00 0.7 2 Oeste 12 Oeste 0 -- -- 84
2018-02-05 09:00:00 -0.4 4 Oeste 9 Oeste 0 -- -- 86
2018-02-05 08:00:00 -0.1 2 Sudoeste 8 Sudoeste 0 -- -- 84
2018-02-05 07:00:00 0.9 4 Sudoeste 10 Sudoeste 0 -- -- 82
2018-02-05 06:00:00 -- 2 Oeste 13 Oeste 0 -- -- --
2018-02-05 05:00:00 -- 2 Noroeste 11 Oeste 0 -- -- --
2018-02-05 04:00:00 0.6 5 Noroeste 9 Noroeste 0 -- -- 90
2018-02-05 03:00:00 0.3 3 Noroeste 12 Norte 0 -- -- 91
2018-02-05 02:00:00 -0.4 4 Noroeste 9 Noroeste 0 -- -- 92
2018-02-05 01:00:00 -0.4 0 Calma 8 Noroeste 0 -- -- 88
2018-02-05 00:00:00 0.3 5 Noroeste 9 Noroeste 0 -- -- 87
2018-02-04 23:00:00 1.1 5 Noroeste 9 Norte 0 -- -- 85
2018-02-04 22:00:00 2.3 4 Noroeste 8 Nordeste 0 -- -- 79
2018-02-04 21:00:00 3.9 5 Norte 26 Noroeste 0 -- -- 73
2018-02-04 20:00:00 4.5 12 Noroeste 23 Norte 0 -- -- 61
2018-02-04 19:00:00 5.5 14 Noroeste 28 Noroeste 0 -- -- 56
2018-02-04 18:00:00 6.6 11 Noroeste 26 Noroeste 0 -- -- 54
2018-02-04 17:00:00 7.5 13 Noroeste 27 Norte 0 -- -- 53
2018-02-04 16:00:00 7.4 12 Norte 28 Norte 0 -- -- 51
2018-02-04 15:00:00 7.9 9 Norte 23 Noroeste 0 -- -- 53
2018-02-04 14:00:00 7.6 7 Norte 16 Norte 0 -- -- 59
2018-02-04 13:00:00 7 6 Nordeste 22 Noroeste 0 -- -- 61
2018-02-04 12:00:00 5.8 6 Norte 29 Noroeste 0 -- -- 69
2018-02-04 11:00:00 5.2 17 Noroeste 30 Oeste 0 -- -- 73
2018-02-04 10:00:00 4 12 Noroeste 27 Noroeste 0 -- -- 81
2018-02-04 09:00:00 3.7 19 Noroeste 32 Noroeste 0 -- -- 87
2018-02-04 08:00:00 4.3 12 Noroeste 25 Noroeste 0 -- -- 84
2018-02-04 07:00:00 5 8 Oeste 22 Noroeste 0 -- -- 85
2018-02-04 06:00:00 5.1 11 Noroeste 26 Noroeste 0 -- -- 85
2018-02-04 05:00:00 5.3 14 Noroeste 30 Noroeste 0 -- -- 85
2018-02-04 04:00:00 5.4 14 Noroeste 32 Oeste 0 -- -- 87
2018-02-04 03:00:00 5.5 12 Noroeste 32 Oeste 0 -- -- 91
2018-02-04 02:00:00 5.8 10 Noroeste 29 Noroeste 0 -- -- 91
2018-02-04 01:00:00 6.3 19 Noroeste 35 Noroeste 0 -- -- 88
2018-02-04 00:00:00 -- 17 Noroeste 32 Oeste 0 -- -- --
2018-02-03 23:00:00 5.4 14 Oeste 25 Oeste 0 -- -- 77
2018-02-03 22:00:00 5.4 9 Noroeste 19 Oeste 0 -- -- 66
2018-02-03 21:00:00 5.5 9 Oeste 20 Noroeste 0 -- -- 61
2018-02-03 20:00:00 6 10 Noroeste 17 Noroeste 0 -- -- 57
2018-02-03 19:00:00 7.5 3 Noroeste 13 Noroeste 0 -- -- 50
2018-02-03 18:00:00 9.4 9 Noroeste 15 Noroeste 0 -- -- 42
2018-02-03 17:00:00 10 5 Norte 14 Nordeste 0 -- -- 37
2018-02-03 16:00:00 9.7 5 Norte 18 Noroeste 0 -- -- 38
2018-02-03 15:00:00 9.9 8 Norte 27 Norte 0 -- -- 38
2018-02-03 14:00:00 9.6 15 Norte 24 Norte 0 -- -- 35
2018-02-03 13:00:00 9.4 8 Norte 21 Noroeste 0 -- -- 38
2018-02-03 12:00:00 9.2 5 Noroeste 14 Oeste 0 -- -- 45
2018-02-03 11:00:00 7 6 Nordeste 12 Nordeste 0 -- -- 51
2018-02-03 10:00:00 2.4 4 Noroeste 9 Oeste 0 -- -- 69
2018-02-03 09:00:00 -0.7 5 Noroeste 9 Oeste 0 -- -- 82
2018-02-03 08:00:00 -1.2 3 Noroeste 7 Norte 0 -- -- 81
2018-02-03 07:00:00 0 2 Oeste 9 Oeste 0 -- -- 74
2018-02-03 06:00:00 -- 5 Oeste 9 Oeste 0 -- -- --
2018-02-03 05:00:00 0.7 4 Oeste 8 Oeste 0 -- -- 72
2018-02-03 04:00:00 -- 3 Noroeste 20 Norte 0 -- -- --
2018-02-03 03:00:00 2.5 5 Norte 16 Nordeste 0 -- -- 60
2018-02-03 02:00:00 2.8 5 Norte 22 Nordeste 0 -- -- 57
2018-02-03 01:00:00 3.3 3 Oeste 22 Norte 0 -- -- 56
2018-02-03 00:00:00 3.4 10 Noroeste 21 Norte 0 -- -- 57
2018-02-02 23:00:00 3.9 10 Norte 23 Noroeste 0 -- -- 55
2018-02-02 22:00:00 -- 8 Norte 19 Noroeste 0 -- -- --
2018-02-02 21:00:00 4.2 6 Noroeste 20 Noroeste 0 -- -- 53
2018-02-02 20:00:00 4.3 6 Noroeste 17 Noroeste 0 -- -- 55
2018-02-02 19:00:00 6 10 Norte 23 Norte 0 -- -- 45
2018-02-02 18:00:00 7.5 13 Norte 32 Norte 0 -- -- 45
2018-02-02 17:00:00 8.1 21 Norte 37 Noroeste 0 -- -- 41
2018-02-02 16:00:00 8.1 11 Norte 28 Noroeste 0 -- -- 45
2018-02-02 15:00:00 8.6 11 Noroeste 26 Norte 0 -- -- 49
2018-02-02 14:00:00 7.6 13 Noroeste 25 Noroeste 0 -- -- 53
2018-02-02 13:00:00 7 14 Noroeste 25 Noroeste 0 -- -- 56
2018-02-02 12:00:00 7.2 9 Noroeste 28 Noroeste 0 -- -- 55
2018-02-02 11:00:00 5.2 20 Norte 36 Noroeste 0 -- -- 60
2018-02-02 10:00:00 -- 10 Noroeste 23 Noroeste 0 -- -- --
2018-02-02 09:00:00 0.5 2 Sur 14 Oeste 0 -- -- 77
2018-02-02 08:00:00 0.6 3 Sudoeste 18 Norte 0 -- -- 77
2018-02-02 07:00:00 -- 5 Oeste 15 Noroeste 0 -- -- --
2018-02-02 06:00:00 1.1 5 Sudoeste 20 Oeste 0 -- -- 76
2018-02-02 05:00:00 1.9 8 Oeste 30 Noroeste 0 -- -- 72
2018-02-02 04:00:00 2.7 13 Noroeste 37 Noroeste 0 -- -- 69
2018-02-02 03:00:00 3.3 19 Noroeste 39 Noroeste 0 -- -- 70
2018-02-02 02:00:00 -- 15 Noroeste 36 Norte 0 -- -- --
2018-02-02 01:00:00 4.4 17 Norte 36 Noroeste 0 -- -- 68
2018-02-02 00:00:00 5.2 15 Norte 46 Noroeste 0 -- -- 67
2018-02-01 23:00:00 5.9 18 Noroeste 37 Norte 0 -- -- 65
2018-02-01 22:00:00 6.3 12 Noroeste 36 Noroeste 0 -- -- 63
2018-02-01 21:00:00 -- 9 Noroeste 25 Norte 0 -- -- --
2018-02-01 20:00:00 8.2 11 Noroeste 27 Noroeste 0 -- -- 73
2018-02-01 19:00:00 8.4 14 Noroeste 28 Noroeste 0 -- -- 77
2018-02-01 18:00:00 9.5 12 Noroeste 31 Oeste 0 -- -- 72
2018-02-01 17:00:00 10.4 12 Noroeste 30 Noroeste 0 -- -- 67
2018-02-01 16:00:00 11.1 15 Noroeste 29 Noroeste 0 -- -- 65
2018-02-01 15:00:00 -- 16 Oeste 32 Oeste 0 -- -- --
2018-02-01 14:00:00 12 13 Oeste 23 Noroeste 0 -- -- 62
2018-02-01 13:00:00 12 14 Oeste 21 Oeste 0 -- -- 59
2018-02-01 12:00:00 11.8 10 Oeste 20 Oeste 0 -- -- 55
2018-02-01 11:00:00 10.7 9 Noroeste 18 Oeste 0 -- -- 60
2018-02-01 10:00:00 8.6 8 Oeste 15 Oeste 0 -- -- 62
2018-02-01 09:00:00 6.9 4 Oeste 12 Oeste 0 -- -- 67
2018-02-01 08:00:00 6.4 0 Calma 11 Oeste 0 -- -- 69
2018-02-01 07:00:00 6.1 6 Oeste 12 Oeste 0 -- -- 71
2018-02-01 06:00:00 5.3 4 Oeste 10 Oeste 0 -- -- 73
2018-02-01 05:00:00 4.4 3 Noroeste 9 Oeste 0 -- -- 79
2018-02-01 04:00:00 -- 2 Oeste 10 Sudoeste 0 -- -- --
2018-02-01 03:00:00 4.2 0 Calma 6 Noroeste 0 -- -- 79
2018-02-01 02:00:00 4.7 3 Noroeste 8 Oeste 0 -- -- 79
2018-02-01 01:00:00 5.4 0 Calma 5 Oeste 0 -- -- 76
2018-02-01 00:00:00 -- 0 Calma 8 Oeste 0 -- -- --
2018-01-31 23:00:00 7.4 2 Noroeste 9 Sudoeste 0 -- -- 65
2018-01-31 22:00:00 8.4 4 Sudoeste 10 Noroeste 0 -- -- 54
2018-01-31 21:00:00 9.8 3 Noroeste 10 Norte 0 -- -- 54
2018-01-31 20:00:00 11.2 3 Norte 17 Noroeste 0 -- -- 51
2018-01-31 19:00:00 11.9 12 Norte 21 Norte 0 -- -- 59
2018-01-31 18:00:00 13.9 6 Norte 16 Norte 0 -- -- 50
2018-01-31 17:00:00 14.8 8 Nordeste 15 Nordeste 0 -- -- 42
2018-01-31 16:00:00 15.7 9 Norte 18 Norte 0 -- -- 42
2018-01-31 15:00:00 16.4 7 Este 17 Este 0 -- -- 39
2018-01-31 14:00:00 15 7 Sudeste 14 Este 0 -- -- 46
2018-01-31 13:00:00 -- 4 Este 13 Este 0 -- -- --
2018-01-31 12:00:00 12.2 8 Este 19 Este 0 -- -- 58
2018-01-31 11:00:00 10.5 2 Sudeste 14 Este 0 -- -- 65
2018-01-31 10:00:00 8.9 3 Sur 8 Noroeste 0 -- -- 72
2018-01-31 09:00:00 6.8 2 Noroeste 6 Norte 0 -- -- 81
2018-01-31 08:00:00 6.4 4 Noroeste 8 Sur 0 -- -- 82
2018-01-31 07:00:00 6.4 0 Calma 4 Este 0 -- -- 81
2018-01-31 06:00:00 7 0 Calma 5 Nordeste 0 -- -- 77
2018-01-31 05:00:00 7.6 2 Sudoeste 5 Este 0 -- -- 74
2018-01-31 04:00:00 7.8 2 Sudoeste 5 Este 0 -- -- 74
2018-01-31 03:00:00 7.5 0 Calma 4 Sudeste 0 -- -- 76
2018-01-31 02:00:00 7.4 0 Calma 4 Sudeste 0 -- -- 77
2018-01-31 01:00:00 8.3 2 Sudeste 9 Este 0 -- -- 71
2018-01-31 00:00:00 7.8 0 Calma 5 Norte 0 -- -- 74
2018-01-30 23:00:00 7.7 2 Norte 8 Este 0 -- -- 74
2018-01-30 22:00:00 7.5 0 Calma 5 Este 0 -- -- 73
2018-01-30 21:00:00 7.9 0 Calma 4 Noroeste 0 -- -- 70
2018-01-30 20:00:00 9.4 0 Calma 6 Sur 0 -- -- 64
2018-01-30 19:00:00 11.1 3 Sur 5 Sudeste 0 -- -- 53
2018-01-30 18:00:00 13.2 4 Sudeste 14 Sudeste 0 -- -- 49
2018-01-30 17:00:00 14.7 8 Este 18 Sudeste 0 -- -- 41
2018-01-30 16:00:00 14.9 10 Este 18 Este 0 -- -- 41
2018-01-30 15:00:00 14.6 10 Este 20 Sudeste 0 -- -- 44
2018-01-30 14:00:00 14.4 11 Sudeste 28 Este 0 -- -- 44
2018-01-30 13:00:00 13.3 10 Sudeste 19 Este 0 -- -- 52
2018-01-30 12:00:00 14.1 8 Sudeste 18 Este 0 -- -- 52
2018-01-30 11:00:00 12.4 12 Sudeste 24 Este 0 -- -- 52
2018-01-30 10:00:00 7.1 3 Sudeste 8 Sudeste 0 -- -- 74
2018-01-30 09:00:00 6.3 0 Calma 5 Nordeste 0 -- -- 74
2018-01-30 08:00:00 4.5 0 Calma 6 Noroeste 0 -- -- 87
2018-01-30 07:00:00 4.3 0 Calma 4 Sur 0 -- -- 83
2018-01-30 06:00:00 5.5 3 Este 9 Este 0 -- -- 78
2018-01-30 05:00:00 4.9 0 Calma 8 Nordeste 0 -- -- 82
2018-01-30 04:00:00 5.3 0 Calma 8 Sudoeste 0 -- -- 81
2018-01-30 03:00:00 6.4 3 Nordeste 8 Nordeste 0 -- -- 77
2018-01-30 02:00:00 8.1 2 Sudeste 8 Este 0 -- -- 71
2018-01-30 01:00:00 9 2 Nordeste 9 Nordeste 0 -- -- 69
2018-01-30 00:00:00 9.4 2 Este 9 Este 0 -- -- 69
2018-01-29 23:00:00 9.5 4 Este 11 Nordeste 0 -- -- 70
2018-01-29 22:00:00 9.6 2 Nordeste 11 Este 0 -- -- 68
2018-01-29 21:00:00 9.7 3 Este 15 Sudeste 0 -- -- 66
2018-01-29 20:00:00 10.8 8 Este 17 Sudeste 0 -- -- 62
2018-01-29 19:00:00 12.3 6 Este 15 Nordeste 0 -- -- 56
2018-01-29 18:00:00 13.9 6 Este 23 Este 0 -- -- 55
2018-01-29 17:00:00 15.5 7 Este 28 Este 0 -- -- 49
2018-01-29 16:00:00 15.6 12 Nordeste 28 Nordeste 0 -- -- 48
2018-01-29 15:00:00 16.1 16 Este 35 Este 0 -- -- 45
2018-01-29 14:00:00 15.2 13 Nordeste 26 Nordeste 0 -- -- 47
2018-01-29 13:00:00 13.1 6 Este 22 Nordeste 0 -- -- 53
2018-01-29 12:00:00 12.4 9 Nordeste 22 Nordeste 0 -- -- 54
2018-01-29 11:00:00 11.3 8 Nordeste 21 Este 0 -- -- 58
2018-01-29 10:00:00 8.9 10 Este 22 Este 0 -- -- 66
2018-01-29 09:00:00 6.8 3 Nordeste 13 Este 0 -- -- 71
2018-01-29 08:00:00 6.8 6 Este 19 Este 0 -- -- 73
2018-01-29 07:00:00 6.6 8 Este 24 Este 0 -- -- 75
2018-01-29 06:00:00 7.2 8 Este 23 Sudeste 0 -- -- 70
2018-01-29 05:00:00 6.9 10 Este 23 Este 0 -- -- 72
2018-01-29 04:00:00 6.8 7 Sudeste 24 Este 0 -- -- 72
2018-01-29 03:00:00 7.5 10 Este 26 Este 0 -- -- 65
2018-01-29 02:00:00 6.7 6 Este 23 Este 0 -- -- 65
2018-01-29 01:00:00 6.5 7 Este 27 Este 0 -- -- 58
2018-01-29 00:00:00 5.6 3 Nordeste 10 Este 0 -- -- 58
2018-01-28 23:00:00 6.1 5 Este 14 Sudeste 0 -- -- 57
2018-01-28 22:00:00 6.6 4 Este 26 Este 0 -- -- 55
2018-01-28 21:00:00 7.7 12 Este 26 Este 0 -- -- 53
2018-01-28 20:00:00 8.8 15 Este 30 Sudeste 0 -- -- 52
2018-01-28 19:00:00 10.2 17 Este 32 Este 0 -- -- 48
2018-01-28 18:00:00 11 17 Este 33 Este 0 -- -- 47
2018-01-28 17:00:00 11 15 Este 32 Este 0 -- -- 56
2018-01-28 16:00:00 10.6 9 Este 33 Nordeste 0 -- -- 59
2018-01-28 15:00:00 11.3 13 Este 34 Este 0 -- -- 57
2018-01-28 14:00:00 10.3 15 Este 46 Sudeste 0 -- -- 59
2018-01-28 13:00:00 9.1 13 Este 49 Este 0 -- -- 62
2018-01-28 12:00:00 9.5 9 Este 42 Este 0 -- -- 58
2018-01-28 11:00:00 8.8 20 Nordeste 46 Nordeste 0 -- -- 56
2018-01-28 10:00:00 6.7 10 Nordeste 30 Nordeste 0 -- -- 60
2018-01-28 09:00:00 5.5 6 Norte 22 Nordeste 0 -- -- 62
2018-01-28 08:00:00 5.9 15 Nordeste 36 Este 0 -- -- 59
2018-01-28 07:00:00 4.8 13 Nordeste 32 Nordeste 0 -- -- 57
2018-01-28 06:00:00 4.1 12 Norte 31 Norte 0 -- -- 63
2018-01-28 05:00:00 4.5 9 Nordeste 20 Nordeste 0 -- -- 61
2018-01-28 04:00:00 4.5 8 Nordeste 24 Nordeste 0 -- -- 61
2018-01-28 03:00:00 5 9 Nordeste 29 Nordeste 0 -- -- 60
2018-01-28 02:00:00 5.7 9 Nordeste 26 Nordeste 0 -- -- 57
2018-01-28 01:00:00 5.9 9 Nordeste 24 Este 0 -- -- 56
2018-01-28 00:00:00 7 10 Nordeste 37 Nordeste 0 -- -- 52
2018-01-27 23:00:00 6.8 14 Nordeste 29 Nordeste 0 -- -- 53
2018-01-27 22:00:00 6.9 11 Nordeste 28 Nordeste 0 -- -- 52
2018-01-27 21:00:00 7.1 6 Norte 19 Nordeste 0 -- -- 53
2018-01-27 20:00:00 7.9 9 Norte 23 Nordeste 0 -- -- 49
2018-01-27 19:00:00 8.3 5 Norte 23 Norte 0 -- -- 51
2018-01-27 18:00:00 9.1 11 Nordeste 31 Norte 0 -- -- 46
2018-01-27 17:00:00 9.5 11 Norte 30 Noroeste 0 -- -- 46
2018-01-27 16:00:00 9.7 15 Norte 32 Nordeste 0 -- -- 47
2018-01-27 15:00:00 9.8 15 Nordeste 34 Nordeste 0 -- -- 48
2018-01-27 14:00:00 9.5 14 Nordeste 36 Nordeste 0 -- -- 45
2018-01-27 13:00:00 9.1 19 Nordeste 37 Nordeste 0 -- -- 46
2018-01-27 12:00:00 9.3 13 Nordeste 24 Nordeste 0 -- -- 49
2018-01-27 11:00:00 6.9 6 Nordeste 18 Nordeste 0 -- -- 63
2018-01-27 10:00:00 3.9 7 Norte 17 Norte 0 -- -- 75
2018-01-27 09:00:00 2.2 8 Noroeste 16 Noroeste 0 -- -- 81
2018-01-27 08:00:00 2 2 Sur 15 Noroeste 0 -- -- 81
2018-01-27 07:00:00 2.7 2 Este 18 Noroeste 0 -- -- 78
2018-01-27 06:00:00 3 9 Noroeste 23 Norte 0 -- -- 80
2018-01-27 05:00:00 3.5 13 Noroeste 32 Noroeste 0 -- -- 79
2018-01-27 04:00:00 3.9 17 Norte 32 Norte 0 -- -- 78
2018-01-27 03:00:00 3.8 10 Noroeste 28 Noroeste 0 -- -- 79
2018-01-27 02:00:00 4.2 8 Noroeste 26 Norte 0 -- -- 76
2018-01-27 01:00:00 4.8 13 Noroeste 35 Norte 0 -- -- 72
2018-01-27 00:00:00 5.3 18 Noroeste 40 Norte 0 -- -- 69
2018-01-26 23:00:00 5.1 19 Noroeste 36 Norte 0 -- -- 70
2018-01-26 22:00:00 5.1 9 Noroeste 31 Noroeste 0 -- -- 69
2018-01-26 21:00:00 5.1 4 Oeste 18 Noroeste 0 -- -- 70
2018-01-26 20:00:00 5.9 10 Noroeste 21 Noroeste 0 -- -- 68
2018-01-26 19:00:00 6.7 4 Oeste 30 Noroeste 0 -- -- 65
2018-01-26 18:00:00 8 13 Noroeste 35 Noroeste 0 -- -- 59
2018-01-26 17:00:00 8.9 14 Noroeste 35 Noroeste 0 -- -- 57
2018-01-26 16:00:00 9.3 14 Noroeste 33 Noroeste 0 -- -- 58
2018-01-26 15:00:00 9.1 15 Noroeste 43 Norte 0 -- -- 59
2018-01-26 14:00:00 8.3 17 Norte 38 Norte 0 -- -- 65
2018-01-26 13:00:00 7 17 Noroeste 30 Noroeste 0 -- -- 71
2018-01-26 12:00:00 6.5 4 Noroeste 19 Noroeste 0 -- -- 76
2018-01-26 11:00:00 6.2 4 Sudoeste 24 Oeste 0 -- -- 77
2018-01-26 10:00:00 3.9 11 Sudoeste 23 Oeste 0 -- -- 88
2018-01-26 09:00:00 1.7 9 Sudoeste 19 Sudoeste 0 -- -- 92
2018-01-26 08:00:00 1.7 4 Sudoeste 21 Noroeste 0 -- -- 86
2018-01-26 07:00:00 1.8 5 Noroeste 15 Norte 0 -- -- 88
2018-01-26 06:00:00 2.6 6 Noroeste 38 Noroeste 0 -- -- 83
2018-01-26 05:00:00 2.8 12 Noroeste 31 Noroeste 0.2 -- -- 84
2018-01-26 04:00:00 3.1 17 Noroeste 31 Noroeste 0 -- -- 88
2018-01-26 03:00:00 3.3 12 Oeste 34 Noroeste 0 -- -- 89
2018-01-26 02:00:00 3.3 15 Noroeste 29 Oeste 0 -- -- 90
2018-01-26 01:00:00 3.6 14 Oeste 29 Noroeste 0 -- -- 86
2018-01-26 00:00:00 4.3 15 Noroeste 33 Noroeste 0 -- -- 85
2018-01-25 23:00:00 4.9 20 Noroeste 36 Noroeste 0 -- -- 89
2018-01-25 22:00:00 5 18 Noroeste 33 Noroeste 0 -- -- 90
2018-01-25 21:00:00 5.8 10 Oeste 28 Noroeste 0 -- -- 93
2018-01-25 20:00:00 6.2 12 Noroeste 29 Oeste 0 -- -- 91
2018-01-25 19:00:00 7.5 13 Noroeste 25 Noroeste 0 -- -- 93
2018-01-25 18:00:00 8.1 6 Oeste 31 Noroeste 1 -- -- 93
2018-01-25 17:00:00 8.9 14 Oeste 33 Oeste 0.4 -- -- 93
2018-01-25 16:00:00 8.8 9 Oeste 22 Oeste 0.4 -- -- 94
2018-01-25 15:00:00 9.1 9 Oeste 24 Noroeste 0.4 -- -- 91
2018-01-25 14:00:00 10.5 8 Sudoeste 25 Sur 0.2 -- -- 83
2018-01-25 13:00:00 12.3 7 Sur 16 Sudoeste 0 -- -- 75
2018-01-25 12:00:00 11.4 5 Sur 12 Sur 0 -- -- 76
2018-01-25 11:00:00 9.5 3 Sur 8 Sur 0 -- -- 86
2018-01-25 10:00:00 7.9 2 Sudoeste 13 Sudoeste 0 -- -- 91
2018-01-25 09:00:00 7.3 5 Sudoeste 14 Sudoeste 0 -- -- 92
2018-01-25 08:00:00 7.7 2 Sudoeste 10 Sudoeste 0 -- -- 90
2018-01-25 07:00:00 8 0 Calma 13 Sudoeste 0 -- -- 91
2018-01-25 06:00:00 8.2 4 Sudoeste 13 Sudoeste 0 -- -- 93
2018-01-25 05:00:00 7.8 3 Oeste 6 Noroeste 0 -- -- 95
2018-01-25 04:00:00 7.6 2 Oeste 11 Oeste 0 -- -- 96
2018-01-25 03:00:00 7.2 6 Oeste 12 Oeste 0 -- -- 93
2018-01-25 02:00:00 7.9 6 Oeste 10 Oeste 0 -- -- 90
2018-01-25 01:00:00 8.5 3 Sudoeste 8 Oeste 0 -- -- 86
2018-01-25 00:00:00 8.9 4 Oeste 10 Oeste 0 -- -- 88
2018-01-24 23:00:00 8.7 5 Oeste 9 Oeste 0 -- -- 88
2018-01-24 22:00:00 8.5 0 Calma 4 Noroeste 0 -- -- 86
2018-01-24 21:00:00 10.1 0 Calma 10 Oeste 0 -- -- 80
2018-01-24 20:00:00 11.7 7 Oeste 12 Sudoeste 0 -- -- 76
2018-01-24 19:00:00 13.2 6 Oeste 11 Oeste 0 -- -- 67
2018-01-24 18:00:00 15.1 4 Oeste 12 Oeste 0 -- -- 59
2018-01-24 17:00:00 16.4 5 Sudoeste 14 Oeste 0 -- -- 53
2018-01-24 16:00:00 16.5 6 Oeste 18 Sudoeste 0 -- -- 53
2018-01-24 15:00:00 16.9 8 Sudoeste 18 Oeste 0 -- -- 53
2018-01-24 14:00:00 15.9 8 Oeste 20 Sudoeste 0 -- -- 55
2018-01-24 13:00:00 15 7 Oeste 18 Oeste 0 -- -- 58
2018-01-24 12:00:00 14.3 9 Sudoeste 19 Sudoeste 0 -- -- 62
2018-01-24 11:00:00 12 5 Sudoeste 12 Sudoeste 0 -- -- 77
2018-01-24 10:00:00 7.5 0 Calma 5 Noroeste 0 -- -- 99
2018-01-24 09:00:00 4.8 0 Calma 4 Sudoeste 0 -- -- 96
2018-01-24 08:00:00 4.8 0 Calma 2 Sudoeste 0 -- -- 96
2018-01-24 07:00:00 5 0 Calma 3 Noroeste 0 -- -- 96
2018-01-24 06:00:00 5.1 0 Calma 4 Noroeste 0 -- -- 95
2018-01-24 05:00:00 5.3 0 Calma 4 Noroeste 0 -- -- 95
2018-01-24 04:00:00 5.6 0 Calma 3 Oeste 0 -- -- 95
2018-01-24 03:00:00 5.9 0 Calma 0 Calma 0 -- -- 93
2018-01-24 02:00:00 6.2 0 Calma 2 Sudoeste 0 -- -- 93
2018-01-24 01:00:00 6.6 0 Calma 4 Noroeste 0 -- -- 94
2018-01-24 00:00:00 6.8 3 Oeste 4 Oeste 0 -- -- 93
2018-01-23 23:00:00 7.2 0 Calma 2 Sudoeste 0 -- -- 91
2018-01-23 22:00:00 7.6 0 Calma 3 Oeste 0 -- -- 89
2018-01-23 21:00:00 8.5 0 Calma 3 Oeste 0 -- -- 80
2018-01-23 20:00:00 10.3 0 Calma 7 Oeste 0 -- -- 71
2018-01-23 19:00:00 13.2 6 Oeste 9 Oeste 0 -- -- 61
2018-01-23 18:00:00 17 0 Calma 6 Sur 0 -- -- 52
2018-01-23 17:00:00 18.6 0 Calma 9 Sudoeste 0 -- -- 46
2018-01-23 16:00:00 19 3 Sur 12 Sudoeste 0 -- -- 43
2018-01-23 15:00:00 19.5 5 Sur 11 Sudoeste 0 -- -- 41
2018-01-23 14:00:00 18.1 3 Sur 8 Sudeste 0 -- -- 47
2018-01-23 13:00:00 17 5 Sudeste 11 Sudeste 0 -- -- 46
2018-01-23 12:00:00 16.2 3 Sudeste 10 Sudeste 0 -- -- 53
2018-01-23 11:00:00 13.8 4 Sudeste 8 Sudeste 0 -- -- 58
2018-01-23 10:00:00 8.3 2 Sur 5 Oeste 0 -- -- 69
2018-01-23 09:00:00 5.2 4 Noroeste 6 Noroeste 0 -- -- 76
2018-01-23 08:00:00 6.1 0 Calma 10 Noroeste 0 -- -- 74
2018-01-23 07:00:00 5 2 Noroeste 4 Noroeste 0 -- -- 81
2018-01-23 06:00:00 4.8 0 Calma 4 Noroeste 0 -- -- 83
2018-01-23 05:00:00 5.3 2 Oeste 5 Norte 0 -- -- 83
2018-01-23 04:00:00 6.6 0 Calma 5 Norte 0 -- -- 79
2018-01-23 03:00:00 8.9 2 Noroeste 19 Nordeste 0 -- -- 71
2018-01-23 02:00:00 10.9 7 Norte 22 Norte 0 -- -- 66
2018-01-23 01:00:00 7.7 4 Noroeste 12 Norte 0 -- -- 74
2018-01-23 00:00:00 10 4 Oeste 17 Nordeste 0 -- -- 62
2018-01-22 23:00:00 7 6 Noroeste 13 Norte 0 -- -- 77
2018-01-22 22:00:00 7.7 9 Norte 15 Norte 0 -- -- 80
2018-01-22 21:00:00 8 4 Noroeste 9 Noroeste 0 -- -- 83
2018-01-22 20:00:00 9.7 4 Noroeste 14 Norte 0 -- -- 75
2018-01-22 19:00:00 11.8 5 Noroeste 10 Norte 0 -- -- 66
2018-01-22 18:00:00 15.8 0 Calma 12 Norte 0 -- -- 54
2018-01-22 17:00:00 17.9 7 Norte 16 Norte 0 -- -- 41
2018-01-22 16:00:00 18.5 3 Sudoeste 13 Noroeste 0 -- -- 49
2018-01-22 15:00:00 18.5 3 Sudoeste 9 Noroeste 0 -- -- 50
2018-01-22 14:00:00 17.2 3 Noroeste 11 Noroeste 0 -- -- 49
2018-01-22 13:00:00 16.3 4 Noroeste 8 Noroeste 0 -- -- 56
2018-01-22 12:00:00 15.6 4 Oeste 9 Noroeste 0 -- -- 62
2018-01-22 11:00:00 11.8 2 Norte 6 Noroeste 0 -- -- 80
2018-01-22 10:00:00 7.1 0 Calma 3 Sur 0 -- -- 98
2018-01-22 09:00:00 4.5 0 Calma 3 Oeste 0 -- -- 95
2018-01-22 08:00:00 4.7 0 Calma 4 Sudoeste 0 -- -- 94
2018-01-22 07:00:00 5.2 0 Calma 5 Noroeste 0 -- -- 95
2018-01-22 06:00:00 5.4 0 Calma 6 Oeste 0 -- -- 93
2018-01-22 05:00:00 5.5 4 Noroeste 7 Noroeste 0 -- -- 93
2018-01-22 04:00:00 5.9 2 Oeste 8 Noroeste 0 -- -- 93
2018-01-22 03:00:00 6.2 2 Noroeste 12 Oeste 0 -- -- 95
2018-01-22 02:00:00 5.6 3 Oeste 5 Oeste 0 -- -- 94
2018-01-22 01:00:00 5.9 0 Calma 4 Oeste 0 -- -- 90
2018-01-22 00:00:00 6.8 3 Noroeste 9 Oeste 0 -- -- 85